createdAt,value
2022-09-18T00:01:39.984Z,2.65
2022-09-18T00:04:09.171Z,2.40
2022-09-18T00:06:38.545Z,2.40
2022-09-18T00:09:09.135Z,2.05
2022-09-18T00:11:42.361Z,2.35
2022-09-18T00:14:13.560Z,2.35
2022-09-18T00:16:40.651Z,2.10
2022-09-18T00:19:08.362Z,2.58
2022-09-18T00:21:37.477Z,2.42
2022-09-18T00:24:05.930Z,2.15
2022-09-18T00:26:33.525Z,2.55
2022-09-18T00:29:01.492Z,2.50
2022-09-18T00:31:32.211Z,2.35
2022-09-18T00:34:02.683Z,2.78
2022-09-18T00:36:30.059Z,2.53
2022-09-18T00:38:59.371Z,2.85
2022-09-18T00:41:38.658Z,3.20
2022-09-18T00:44:33.572Z,3.70
2022-09-18T00:47:17.827Z,4.25
2022-09-18T00:50:02.634Z,3.95
2022-09-18T00:52:56.921Z,4.57
2022-09-18T00:55:34.211Z,4.63
2022-09-18T00:58:03.727Z,5.00
2022-09-18T01:00:31.597Z,4.60
2022-09-18T01:02:59.812Z,4.90
2022-09-18T01:05:46.950Z,5.22
2022-09-18T01:08:32.529Z,4.88
2022-09-18T01:11:18.430Z,4.68
2022-09-18T01:13:54.501Z,5.10
2022-09-18T01:16:44.248Z,4.53
2022-09-18T01:19:19.548Z,4.57
2022-09-18T01:21:56.385Z,4.63
2022-09-18T01:24:26.262Z,5.15
2022-09-18T01:26:57.497Z,4.97
2022-09-18T01:29:36.453Z,5.00
2022-09-18T01:32:11.639Z,5.65
2022-09-18T01:34:46.215Z,5.30
2022-09-18T01:37:42.315Z,5.45
2022-09-18T01:40:19.235Z,4.88
2022-09-18T01:42:49.841Z,5.28
2022-09-18T01:45:23.147Z,5.10
2022-09-18T01:48:03.790Z,4.80
2022-09-18T01:50:33.928Z,4.50
2022-09-18T01:53:47.636Z,4.30
2022-09-18T01:56:22.294Z,4.50
2022-09-18T01:58:51.319Z,4.70
2022-09-18T02:01:21.308Z,3.90
2022-09-18T02:03:58.915Z,3.88
2022-09-18T02:06:42.269Z,3.63
2022-09-18T02:09:11.118Z,3.45
2022-09-18T02:11:42.296Z,3.55
2022-09-18T02:14:12.665Z,3.08
2022-09-18T02:16:48.666Z,3.40
2022-09-18T02:19:27.909Z,3.40
2022-09-18T02:21:57.303Z,3.20
2022-09-18T02:24:28.562Z,2.80
2022-09-18T02:26:56.955Z,2.38
2022-09-18T02:29:25.339Z,2.45
2022-09-18T02:31:52.683Z,2.55
2022-09-18T02:34:21.180Z,2.75
2022-09-18T02:37:03.002Z,4.93
2022-09-18T02:39:42.388Z,2.70
2022-09-18T02:42:27.401Z,2.30
2022-09-18T02:45:27.938Z,2.10
2022-09-18T02:48:13.386Z,2.08
2022-09-18T02:51:08.343Z,1.92
2022-09-18T02:53:56.534Z,2.28
2022-09-18T02:56:57.904Z,2.15
2022-09-18T02:59:36.907Z,2.50
2022-09-18T03:02:04.442Z,2.47
2022-09-18T03:04:31.413Z,2.80
2022-09-18T03:06:58.298Z,3.42
2022-09-18T03:09:26.246Z,2.55
2022-09-18T03:11:54.062Z,2.35
2022-09-18T03:14:20.929Z,2.28
2022-09-18T03:16:47.767Z,1.92
2022-09-18T03:19:14.900Z,2.00
2022-09-18T03:21:41.799Z,2.10
2022-09-18T03:24:08.672Z,1.90
2022-09-18T03:26:35.587Z,1.92
2022-09-18T03:29:02.483Z,1.92
2022-09-18T03:31:29.661Z,1.90
2022-09-18T03:33:56.578Z,1.90
2022-09-18T03:36:23.448Z,2.40
2022-09-18T03:38:50.280Z,1.80
2022-09-18T03:41:17.094Z,2.08
2022-09-18T03:43:43.944Z,2.33
2022-09-18T03:46:10.943Z,2.33
2022-09-18T03:48:37.803Z,2.22
2022-09-18T03:51:04.898Z,2.22
2022-09-18T03:53:31.727Z,2.20
2022-09-18T03:55:58.510Z,2.13
2022-09-18T03:58:25.422Z,2.28
2022-09-18T04:00:52.210Z,2.20
2022-09-18T04:03:19.184Z,2.42
2022-09-18T04:05:49.730Z,2.78
2022-09-18T04:08:17.368Z,2.30
2022-09-18T04:10:44.983Z,2.70
2022-09-18T04:13:11.856Z,2.28
2022-09-18T04:15:38.751Z,2.60
2022-09-18T04:18:06.227Z,2.13
2022-09-18T04:20:33.129Z,2.30
2022-09-18T04:22:59.986Z,2.30
2022-09-18T04:25:26.803Z,2.30
2022-09-18T04:27:53.633Z,2.63
2022-09-18T04:30:20.629Z,2.67
2022-09-18T04:32:48.657Z,2.88
2022-09-18T04:35:15.554Z,2.92
2022-09-18T04:37:43.842Z,2.53
2022-09-18T04:40:11.348Z,2.55
2022-09-18T04:42:38.293Z,2.30
2022-09-18T04:45:05.686Z,2.30
2022-09-18T04:47:32.540Z,2.53
2022-09-18T04:49:59.368Z,2.20
2022-09-18T04:52:26.302Z,2.28
2022-09-18T04:54:53.189Z,2.22
2022-09-18T04:57:20.003Z,2.20
2022-09-18T04:59:47.055Z,2.60
2022-09-18T05:02:13.988Z,2.28
2022-09-18T05:04:40.789Z,2.30
2022-09-18T05:07:07.609Z,2.20
2022-09-18T05:09:34.575Z,3.78
2022-09-18T05:12:01.728Z,3.70
2022-09-18T05:14:28.622Z,3.20
2022-09-18T05:16:56.555Z,2.30
2022-09-18T05:19:23.784Z,2.50
2022-09-18T05:21:51.594Z,2.45
2022-09-18T05:24:18.829Z,2.28
2022-09-18T05:26:45.793Z,2.80
2022-09-18T05:29:12.706Z,2.80
2022-09-18T05:31:39.780Z,2.65
2022-09-18T05:34:06.688Z,3.22
2022-09-18T05:36:33.595Z,3.00
2022-09-18T05:39:00.721Z,2.83
2022-09-18T05:41:27.650Z,3.00
2022-09-18T05:43:55.502Z,2.75
2022-09-18T05:46:22.550Z,3.20
2022-09-18T05:48:50.177Z,2.60
2022-09-18T05:51:17.073Z,2.72
2022-09-18T05:53:48.426Z,2.80
2022-09-18T05:56:16.235Z,3.10
2022-09-18T05:58:43.107Z,2.67
2022-09-18T06:01:10.386Z,2.58
2022-09-18T06:03:37.225Z,2.67
2022-09-18T06:06:04.248Z,2.80
2022-09-18T06:08:31.094Z,2.80
2022-09-18T06:11:02.622Z,2.85
2022-09-18T06:13:29.486Z,2.63
2022-09-18T06:15:57.543Z,3.35
2022-09-18T06:18:25.074Z,3.28
2022-09-18T06:20:55.455Z,2.67
2022-09-18T06:23:27.408Z,3.28
2022-09-18T06:26:05.747Z,2.97
2022-09-18T06:28:34.209Z,3.65
2022-09-18T06:31:03.090Z,3.90
2022-09-18T06:33:29.997Z,3.08
2022-09-18T06:35:56.985Z,2.88
2022-09-18T06:38:23.959Z,4.55
2022-09-18T06:40:52.405Z,3.78
2022-09-18T06:43:19.708Z,3.53
2022-09-18T06:45:54.758Z,4.25
2022-09-18T06:48:22.509Z,3.95
2022-09-18T06:50:57.368Z,3.60
2022-09-18T06:53:24.937Z,4.15
2022-09-18T06:55:51.855Z,2.97
2022-09-18T06:58:19.923Z,2.90
2022-09-18T07:00:46.864Z,3.10
2022-09-18T07:03:14.050Z,2.88
2022-09-18T07:05:42.858Z,3.25
2022-09-18T07:08:10.312Z,3.20
2022-09-18T07:10:37.674Z,3.40
2022-09-18T07:13:04.905Z,2.83
2022-09-18T07:15:32.396Z,3.20
2022-09-18T07:18:01.353Z,3.05
2022-09-18T07:20:29.487Z,3.40
2022-09-18T07:22:58.569Z,3.20
2022-09-18T07:25:31.352Z,2.55
2022-09-18T07:28:08.646Z,3.00
2022-09-18T07:30:36.924Z,10.35
2022-09-18T07:33:05.284Z,5.78
2022-09-18T07:35:32.970Z,3.83
2022-09-18T07:38:01.193Z,3.47
2022-09-18T07:40:28.617Z,3.58
2022-09-18T07:43:07.815Z,3.40
2022-09-18T07:45:35.621Z,3.20
2022-09-18T07:48:06.869Z,2.72
2022-09-18T07:50:33.921Z,2.75
2022-09-18T07:53:05.567Z,2.85
2022-09-18T07:55:35.764Z,2.65
2022-09-18T07:58:04.853Z,5.70
2022-09-18T08:00:35.286Z,5.28
2022-09-18T08:03:12.808Z,4.18
2022-09-18T08:05:40.933Z,3.33
2022-09-18T08:08:12.961Z,2.75
2022-09-18T08:10:41.872Z,2.72
2022-09-18T08:13:10.621Z,2.60
2022-09-18T08:15:39.910Z,2.80
2022-09-18T08:18:07.761Z,2.40
2022-09-18T08:20:35.315Z,2.30
2022-09-18T08:23:06.707Z,2.50
2022-09-18T08:25:34.082Z,2.78
2022-09-18T08:28:02.366Z,2.85
2022-09-18T08:30:29.855Z,2.60
2022-09-18T08:33:01.912Z,2.45
2022-09-18T08:35:30.625Z,2.60
2022-09-18T08:37:58.367Z,2.28
2022-09-18T08:40:37.191Z,2.65
2022-09-18T08:43:14.249Z,3.35
2022-09-18T08:46:06.759Z,7.45
2022-09-18T08:49:06.074Z,4.32
2022-09-18T08:51:45.138Z,3.17
2022-09-18T08:54:43.667Z,3.10
2022-09-18T08:57:21.434Z,3.38
2022-09-18T08:59:56.312Z,2.30
2022-09-18T09:02:41.165Z,2.38
2022-09-18T09:05:14.993Z,2.30
2022-09-18T09:08:00.428Z,2.20
2022-09-18T09:11:12.153Z,2.10
2022-09-18T09:13:44.826Z,2.25
2022-09-18T09:16:34.813Z,2.20
2022-09-18T09:19:02.504Z,2.30
2022-09-18T09:21:47.828Z,3.35
2022-09-18T09:24:31.111Z,3.63
2022-09-18T09:26:58.941Z,3.72
2022-09-18T09:29:39.692Z,2.90
2022-09-18T09:32:30.388Z,2.17
2022-09-18T09:35:37.667Z,2.00
2022-09-18T09:38:21.454Z,1.92
2022-09-18T09:40:52.643Z,2.10
2022-09-18T09:43:22.249Z,4.00
2022-09-18T09:45:52.583Z,3.03
2022-09-18T09:48:26.437Z,2.20
2022-09-18T09:51:16.039Z,2.38
2022-09-18T09:53:43.360Z,2.50
2022-09-18T09:56:49.455Z,2.90
2022-09-18T09:59:35.166Z,2.47
2022-09-18T10:02:23.200Z,2.10
2022-09-18T10:05:01.315Z,2.40
2022-09-18T10:07:54.672Z,1.90
2022-09-18T10:10:45.584Z,2.17
2022-09-18T10:13:19.813Z,2.83
2022-09-18T10:15:53.266Z,3.75
2022-09-18T10:18:25.470Z,3.63
2022-09-18T10:20:58.457Z,2.75
2022-09-18T10:23:45.157Z,2.40
2022-09-18T10:26:17.479Z,1.90
2022-09-18T10:28:44.278Z,1.40
2022-09-18T10:31:13.494Z,1.30
2022-09-18T10:33:58.640Z,1.38
2022-09-18T10:36:38.307Z,1.50
2022-09-18T10:39:32.158Z,2.33
2022-09-18T10:42:00.790Z,6.22
2022-09-18T10:44:43.332Z,1.80
2022-09-18T10:47:19.550Z,1.48
2022-09-18T10:49:50.939Z,3.80
2022-09-18T10:52:21.098Z,1.90
2022-09-18T10:55:09.652Z,1.88
2022-09-18T10:57:56.893Z,1.90
2022-09-18T11:00:24.449Z,3.10
2022-09-18T11:03:01.122Z,3.80
2022-09-18T11:05:36.062Z,2.40
2022-09-18T11:08:13.202Z,1.70
2022-09-18T11:10:40.361Z,1.67
2022-09-18T11:13:07.251Z,2.13
2022-09-18T11:15:36.451Z,2.10
2022-09-18T11:18:06.861Z,2.67
2022-09-18T11:20:40.500Z,1.90
2022-09-18T11:23:19.307Z,4.60
2022-09-18T11:25:47.249Z,1.58
2022-09-18T11:28:33.148Z,1.50
2022-09-18T11:31:06.188Z,1.75
2022-09-18T11:33:44.370Z,1.70
2022-09-18T11:36:13.694Z,2.00
2022-09-18T11:38:46.030Z,3.70
2022-09-18T11:41:15.028Z,2.05
2022-09-18T11:43:43.796Z,1.90
2022-09-18T11:46:38.066Z,1.90
2022-09-18T11:49:17.591Z,2.08
2022-09-18T11:51:55.727Z,2.25
2022-09-18T11:54:36.520Z,2.20
2022-09-18T11:57:10.586Z,2.00
2022-09-18T11:59:45.236Z,1.30
2022-09-18T12:02:19.211Z,1.63
2022-09-18T12:04:53.177Z,1.20
2022-09-18T12:07:45.139Z,1.88
2022-09-18T12:10:17.841Z,1.10
2022-09-18T12:13:13.773Z,1.02
2022-09-18T12:15:44.084Z,1.20
2022-09-18T12:18:17.269Z,0.70
2022-09-18T12:21:04.838Z,1.23
2022-09-18T12:23:32.372Z,1.10
2022-09-18T12:26:25.909Z,3.47
2022-09-18T12:29:29.292Z,2.22
2022-09-18T12:32:33.694Z,1.20
2022-09-18T12:35:34.692Z,1.35
2022-09-18T12:38:19.610Z,1.70
2022-09-18T12:40:56.026Z,1.77
2022-09-18T12:43:25.600Z,1.90
2022-09-18T12:46:22.062Z,3.80
2022-09-18T12:49:09.089Z,2.05
2022-09-18T12:51:38.782Z,2.88
2022-09-18T12:54:33.556Z,4.20
2022-09-18T12:57:03.135Z,3.95
2022-09-18T12:59:39.148Z,5.63
2022-09-18T13:02:28.240Z,6.57
2022-09-18T13:05:14.250Z,3.40
2022-09-18T13:08:03.939Z,3.10
2022-09-18T13:10:40.970Z,5.88
2022-09-18T13:13:30.343Z,5.85
2022-09-18T13:16:03.884Z,5.22
2022-09-18T13:18:55.839Z,6.75
2022-09-18T13:21:29.998Z,6.25
2022-09-18T13:23:58.714Z,5.95
2022-09-18T13:26:28.552Z,3.38
2022-09-18T13:28:55.526Z,4.60
2022-09-18T13:31:26.463Z,4.90
2022-09-18T13:34:05.406Z,3.92
2022-09-18T13:36:41.144Z,6.28
2022-09-18T13:39:19.272Z,7.22
2022-09-18T13:41:52.301Z,5.50
2022-09-18T13:44:28.619Z,5.60
2022-09-18T13:47:18.785Z,3.67
2022-09-18T13:49:58.525Z,4.63
2022-09-18T13:52:34.507Z,2.08
2022-09-18T13:55:13.454Z,2.50
2022-09-18T13:57:41.779Z,2.88
2022-09-18T14:00:20.814Z,2.50
2022-09-18T14:02:51.613Z,1.60
2022-09-18T14:05:53.714Z,1.30
2022-09-18T14:08:21.657Z,1.25
2022-09-18T14:11:05.336Z,1.00
2022-09-18T14:13:56.948Z,1.00
2022-09-18T14:16:26.269Z,1.30
2022-09-18T14:19:18.097Z,1.05
2022-09-18T14:21:45.295Z,1.60
2022-09-18T14:24:36.391Z,1.27
2022-09-18T14:27:31.474Z,1.23
2022-09-18T14:30:02.157Z,1.27
2022-09-18T14:32:29.580Z,1.13
2022-09-18T14:35:21.981Z,1.20
2022-09-18T14:37:48.879Z,1.00
2022-09-18T14:40:22.602Z,0.88
2022-09-18T14:42:49.935Z,1.27
2022-09-18T14:45:30.037Z,1.00
2022-09-18T14:47:58.460Z,1.65
2022-09-18T14:50:36.831Z,1.48
2022-09-18T14:53:26.027Z,1.30
2022-09-18T14:56:04.957Z,1.00
2022-09-18T14:58:36.495Z,1.25
2022-09-18T15:01:06.558Z,1.33
2022-09-18T15:03:41.947Z,1.45
2022-09-18T15:06:54.151Z,1.40
2022-09-18T15:09:25.869Z,1.98
2022-09-18T15:12:02.172Z,1.63
2022-09-18T15:14:45.510Z,1.55
2022-09-18T15:17:23.707Z,1.33
2022-09-18T15:20:00.597Z,1.38
2022-09-18T15:22:28.542Z,1.27
2022-09-18T15:24:58.585Z,2.10
2022-09-18T15:27:25.639Z,1.35
2022-09-18T15:30:08.211Z,1.60
2022-09-18T15:32:40.687Z,1.83
2022-09-18T15:35:13.256Z,1.85
2022-09-18T15:37:50.414Z,1.80
2022-09-18T15:40:20.161Z,3.10
2022-09-18T15:43:01.817Z,3.00
2022-09-18T15:47:59.144Z,2.78
2022-09-18T15:50:39.545Z,2.88
2022-09-18T15:53:24.336Z,2.40
2022-09-18T15:55:55.380Z,2.15
2022-09-18T15:58:37.147Z,2.40
2022-09-18T16:01:06.446Z,2.35
2022-09-18T16:03:34.150Z,2.40
2022-09-18T16:06:05.029Z,2.85
2022-09-18T16:08:37.647Z,2.90
2022-09-18T16:11:06.503Z,3.88
2022-09-18T16:13:37.563Z,3.75
2022-09-18T16:16:13.616Z,3.67
2022-09-18T16:19:13.399Z,3.20
2022-09-18T16:21:44.754Z,2.95
2022-09-18T16:24:29.948Z,2.70
2022-09-18T16:27:07.212Z,2.70
2022-09-18T16:29:35.127Z,2.67
2022-09-18T16:32:02.279Z,3.00
2022-09-18T16:34:29.789Z,2.72
2022-09-18T16:36:56.925Z,3.42
2022-09-18T16:39:26.276Z,3.47
2022-09-18T16:41:53.377Z,3.72
2022-09-18T16:44:20.498Z,3.30
2022-09-18T16:46:47.421Z,2.90
2022-09-18T16:49:19.233Z,3.10
2022-09-18T16:51:46.165Z,3.38
2022-09-18T16:54:13.056Z,3.60
2022-09-18T16:56:51.866Z,4.20
2022-09-18T16:59:21.883Z,4.15
2022-09-18T17:02:03.392Z,4.10
2022-09-18T17:04:31.773Z,5.78
2022-09-18T17:06:58.818Z,6.95
2022-09-18T17:09:26.548Z,5.75
2022-09-18T17:11:54.508Z,5.53
2022-09-18T17:14:22.317Z,5.93
2022-09-18T17:16:49.210Z,7.90
2022-09-18T17:19:16.267Z,9.60
2022-09-18T17:21:43.184Z,10.70
2022-09-18T17:24:11.002Z,8.02
2022-09-18T17:26:39.528Z,7.43
2022-09-18T17:29:07.055Z,13.15
2022-09-18T17:31:34.129Z,11.02
2022-09-18T17:34:01.266Z,7.90
2022-09-18T17:36:28.685Z,8.25
2022-09-18T17:38:58.404Z,9.27
2022-09-18T17:41:27.590Z,8.73
2022-09-18T17:43:54.459Z,9.48
2022-09-18T17:46:21.371Z,9.07
2022-09-18T17:48:48.746Z,8.50
2022-09-18T17:51:18.540Z,8.07
2022-09-18T17:53:47.805Z,7.43
2022-09-18T17:56:20.072Z,7.68
2022-09-18T17:58:47.496Z,7.68
2022-09-18T18:01:16.783Z,20.25
2022-09-18T18:03:43.729Z,12.10
2022-09-18T18:06:13.897Z,9.00
2022-09-18T18:08:41.038Z,12.07
2022-09-18T18:11:13.795Z,8.90
2022-09-18T18:13:42.705Z,7.22
2022-09-18T18:16:23.164Z,6.80
2022-09-18T18:18:51.607Z,6.45
2022-09-18T18:21:19.346Z,6.65
2022-09-18T18:23:46.675Z,6.15
2022-09-18T18:26:14.127Z,6.45
2022-09-18T18:28:41.998Z,6.93
2022-09-18T18:31:12.320Z,6.68
2022-09-18T18:33:42.809Z,7.63
2022-09-18T18:36:13.293Z,6.47
2022-09-18T18:38:44.301Z,6.80
2022-09-18T18:41:12.498Z,6.78
2022-09-18T18:43:42.520Z,5.97
2022-09-18T18:46:13.946Z,6.15
2022-09-18T18:51:11.669Z,9.00
2022-09-18T18:53:38.757Z,6.47
2022-09-18T18:56:11.076Z,5.65
2022-09-18T19:01:25.763Z,9.52
2022-09-18T19:04:00.266Z,7.20
2022-09-18T19:06:27.646Z,15.23
2022-09-18T19:09:19.997Z,22.80
2022-09-18T19:11:49.207Z,33.33
2022-09-18T19:14:19.574Z,7.47
2022-09-18T19:16:47.406Z,8.35
2022-09-18T19:19:16.044Z,8.68
2022-09-18T19:21:43.476Z,7.97
2022-09-18T19:24:11.243Z,8.68
2022-09-18T19:26:39.785Z,8.65
2022-09-18T19:29:10.254Z,8.25
2022-09-18T19:31:39.441Z,8.00
2022-09-18T19:34:07.093Z,9.57
2022-09-18T19:36:35.580Z,14.48
2022-09-18T19:39:04.621Z,16.90
2022-09-18T19:41:51.346Z,12.25
2022-09-18T19:44:25.970Z,15.40
2022-09-18T19:46:55.469Z,17.50
2022-09-18T19:49:30.005Z,14.48
2022-09-18T19:51:56.840Z,11.77
2022-09-18T19:54:23.695Z,13.27
2022-09-18T19:56:50.571Z,18.60
2022-09-18T19:59:17.517Z,17.83
2022-09-18T20:01:45.178Z,14.75
2022-09-18T20:04:12.176Z,17.08
2022-09-18T20:06:40.565Z,17.20
2022-09-18T20:09:08.030Z,15.57
2022-09-18T20:11:35.426Z,12.18
2022-09-18T20:14:02.209Z,14.93
2022-09-18T20:16:29.684Z,8.13
2022-09-18T20:18:56.897Z,8.95
2022-09-18T20:21:24.242Z,7.65
2022-09-18T20:23:59.156Z,10.65
2022-09-18T20:26:26.570Z,10.05
2022-09-18T20:28:53.482Z,8.02
2022-09-18T20:31:21.252Z,8.90
2022-09-18T20:33:48.108Z,9.80
2022-09-18T20:36:14.983Z,9.18
2022-09-18T20:38:42.579Z,7.10
2022-09-18T20:41:13.493Z,7.15
2022-09-18T20:43:41.856Z,6.97
2022-09-18T20:46:14.319Z,7.63
2022-09-18T20:48:43.008Z,6.85
2022-09-18T20:51:14.523Z,7.70
2022-09-18T20:56:12.740Z,6.97
2022-09-18T20:58:42.378Z,6.32
2022-09-18T21:01:13.630Z,7.25
2022-09-18T21:03:42.589Z,6.93
2022-09-18T21:06:22.460Z,6.35
2022-09-18T21:08:53.607Z,6.30
2022-09-18T21:11:27.449Z,17.25
2022-09-18T21:13:56.909Z,10.48
2022-09-18T21:16:26.341Z,7.43
2022-09-18T21:18:56.795Z,5.80
2022-09-18T21:21:25.083Z,5.55
2022-09-18T21:24:01.330Z,6.18
2022-09-18T21:26:37.295Z,5.90
2022-09-18T21:29:26.146Z,5.10
2022-09-18T21:31:56.602Z,5.75
2022-09-18T21:34:27.012Z,14.63
2022-09-18T21:36:59.516Z,8.18
2022-09-18T21:39:30.648Z,6.40
2022-09-18T21:41:59.411Z,5.70
2022-09-18T21:44:28.518Z,5.95
2022-09-18T21:47:01.935Z,6.10
2022-09-18T21:49:29.548Z,5.78
2022-09-18T21:51:58.778Z,5.55
2022-09-18T21:54:26.278Z,5.82
2022-09-18T21:56:54.061Z,5.47
2022-09-18T21:59:25.770Z,6.05
2022-09-18T22:01:54.802Z,5.75
2022-09-18T22:04:27.054Z,5.28
2022-09-18T22:06:55.746Z,5.07
2022-09-18T22:09:24.053Z,5.20
2022-09-18T22:11:52.029Z,5.10
2022-09-18T22:14:25.959Z,5.28
2022-09-18T22:16:56.456Z,4.53
2022-09-18T22:19:23.379Z,4.88
2022-09-18T22:21:51.345Z,4.90
2022-09-18T22:24:21.638Z,4.80
2022-09-18T22:26:49.777Z,5.40
2022-09-18T22:29:21.950Z,5.38
2022-09-18T22:31:50.375Z,5.60
2022-09-18T22:34:19.823Z,5.28
2022-09-18T22:36:47.988Z,5.68
2022-09-18T22:39:17.189Z,5.38
2022-09-18T22:41:44.706Z,5.22
2022-09-18T22:44:12.652Z,5.43
2022-09-18T22:46:41.535Z,4.90
2022-09-18T22:49:11.811Z,5.65
2022-09-18T22:51:40.058Z,5.95
2022-09-18T22:54:08.106Z,5.95
2022-09-18T22:56:47.613Z,5.82
2022-09-18T22:59:16.878Z,5.90
2022-09-18T23:01:49.184Z,5.88
2022-09-18T23:04:18.970Z,6.30
2022-09-18T23:06:47.762Z,5.70
2022-09-18T23:09:15.510Z,4.90
2022-09-18T23:11:44.106Z,6.63
2022-09-18T23:14:20.472Z,6.80
2022-09-18T23:16:48.993Z,6.20
2022-09-18T23:19:27.302Z,5.82
2022-09-18T23:21:55.445Z,5.72
2022-09-18T23:24:23.359Z,5.00
2022-09-18T23:26:52.140Z,5.07
2022-09-18T23:29:21.823Z,4.47
2022-09-18T23:31:53.129Z,4.28
2022-09-18T23:34:22.455Z,4.78
2022-09-18T23:36:51.403Z,4.70
2022-09-18T23:39:25.108Z,5.43
2022-09-18T23:41:52.201Z,4.97
2022-09-18T23:44:20.864Z,4.68
2022-09-18T23:46:48.716Z,4.32
2022-09-18T23:49:17.194Z,3.45
2022-09-18T23:51:48.459Z,4.10
2022-09-18T23:54:22.602Z,3.63
2022-09-18T23:56:50.100Z,3.58
2022-09-18T23:59:22.628Z,3.63
